Time;durP1;ratioP1;P1;durP2;ratioP2;P2;SDS_P1;SDS_P2;PMS_P1;PMS_P2;Temp;Humidity;BMP_temperature;BMP_pressure;BME280_temperature;BME280_humidity;BME280_pressure;Samples;Min_cycle;Max_cycle;Signal;HPM_P1;HPM_P2
2022/03/16 00:02:12;;;;;;;;;;;;;;;6.45;76.08;98635.41;4951300;28;19993;-76
2022/03/16 00:04:40;;;;;;;;;;;;;;;6.35;76.15;98635.38;4955014;28;19926;-76
2022/03/16 00:07:08;;;;;;;;;;;;;;;6.31;75.98;98639.69;4958669;28;19984;-76
2022/03/16 00:09:36;;;;;;;;;;;;;;;6.29;76.47;98641.84;4972461;28;20025;-76
2022/03/16 00:12:06;;;;;;;;;;;;;;;6.32;76.30;98645.88;4957524;28;20300;-78
2022/03/16 00:14:35;;;;;;;;;;;;;;;6.48;75.60;98650.25;4971887;28;19933;-76
2022/03/16 00:17:05;;;;;;;;;;;;;;;6.41;75.30;98641.59;4950797;28;19965;-77
2022/03/16 00:19:33;;;;;;;;;;;;;;;6.30;76.30;98655.06;4973876;28;19941;-76
2022/03/16 00:22:02;;;;;;;;;;;;;;;6.29;76.01;98648.06;4957428;28;20381;-76
2022/03/16 00:24:31;;;;;;;;;;;;;;;6.23;76.54;98649.13;4972716;28;19926;-76
2022/03/16 00:27:00;;;;;;;;;;;;;;;6.43;75.73;98648.34;4940832;28;20080;-76
2022/03/16 00:29:31;;;;;;;;;;;;;;;6.42;75.12;98652.13;4958837;28;20380;-76
2022/03/16 00:32:03;;;;;;;;;;;;;;;6.44;75.76;98651.84;4967234;28;19930;-76
2022/03/16 00:34:34;;;;;;;;;;;;;;;6.40;75.38;98658.88;4956165;28;19936;-76
2022/03/16 00:37:04;;;;;;;;;;;;;;;6.26;76.25;98656.66;4957911;28;19938;-76
2022/03/16 00:42:27;;;;;;;;;;;;;;;6.32;76.27;98662.09;4945900;28;19934;-75
2022/03/16 00:44:57;;;;;;;;;;;;;;;6.37;76.04;98662.91;4968553;28;20347;-76
2022/03/16 00:47:27;;;;;;;;;;;;;;;6.29;75.92;98661.56;4952655;28;20348;-76
2022/03/16 00:49:59;;;;;;;;;;;;;;;6.34;75.86;98655.34;4954450;28;19926;-76
2022/03/16 00:52:29;;;;;;;;;;;;;;;6.27;76.35;98660.19;4960317;28;19973;-76
2022/03/16 00:54:59;;;;;;;;;;;;;;;6.60;75.20;98667.00;4957405;28;19926;-76
2022/03/16 00:57:28;;;;;;;;;;;;;;;6.43;75.72;98661.03;4955466;28;19966;-77
2022/03/16 00:59:58;;;;;;;;;;;;;;;6.38;75.97;98663.72;4954287;28;19994;-76
2022/03/16 01:02:26;;;;;;;;;;;;;;;6.33;76.28;98663.69;4953120;28;19962;-76
2022/03/16 01:04:54;;;;;;;;;;;;;;;6.32;76.12;98659.38;4956143;28;19926;-76
2022/03/16 01:07:26;;;;;;;;;;;;;;;6.34;75.71;98659.91;4978274;28;19965;-76
2022/03/16 01:09:55;;;;;;;;;;;;;;;6.35;76.15;98658.88;4977956;28;19926;-76
2022/03/16 01:12:26;;;;;;;;;;;;;;;6.37;76.22;98665.59;4991591;28;20524;-76
2022/03/16 01:14:54;;;;;;;;;;;;;;;6.30;76.09;98660.47;5005894;28;19933;-75
2022/03/16 01:17:24;;;;;;;;;;;;;;;6.28;76.46;98665.34;4989910;28;20400;-75
2022/03/16 01:19:53;;;;;;;;;;;;;;;6.60;74.77;98658.91;4974149;28;20617;-75
2022/03/16 01:22:47;;;;;;;;;;;;;;;6.27;75.99;98663.69;5004590;28;19930;-75
2022/03/16 01:25:16;;;;;;;;;;;;;;;6.26;76.66;98659.38;4981673;28;20396;-76
2022/03/16 01:27:44;;;;;;;;;;;;;;;6.22;76.31;98666.34;4990776;28;19930;-75
2022/03/16 01:30:14;;;;;;;;;;;;;;;6.19;76.70;98666.91;4988461;28;19930;-75
2022/03/16 01:32:43;;;;;;;;;;;;;;;6.26;76.27;98664.75;5007919;28;19930;-76
2022/03/16 01:35:16;;;;;;;;;;;;;;;6.37;76.29;98662.09;4990079;28;21620;-76
2022/03/16 01:37:45;;;;;;;;;;;;;;;6.38;75.98;98663.72;4975025;28;20384;-76
2022/03/16 01:40:14;;;;;;;;;;;;;;;6.50;75.30;98664.31;4988670;28;19992;-76
2022/03/16 01:42:43;;;;;;;;;;;;;;;6.79;74.61;98664.63;4988625;28;20380;-76
2022/03/16 01:45:11;;;;;;;;;;;;;;;6.90;73.37;98666.25;4971469;28;20350;-76
2022/03/16 01:47:39;;;;;;;;;;;;;;;6.61;74.31;98665.97;4989218;28;19925;-76
2022/03/16 01:50:08;;;;;;;;;;;;;;;6.69;74.29;98668.13;4994021;28;20008;-76
2022/03/16 01:52:36;;;;;;;;;;;;;;;6.82;73.95;98664.91;4992105;28;19953;-77
2022/03/16 01:55:05;;;;;;;;;;;;;;;6.33;75.56;98664.50;4961116;28;19934;-76
2022/03/16 01:57:35;;;;;;;;;;;;;;;6.51;75.65;98671.31;4973907;28;19930;-76
2022/03/16 02:00:04;;;;;;;;;;;;;;;6.81;74.06;98668.66;4986950;28;19984;-77
2022/03/16 02:02:38;;;;;;;;;;;;;;;6.86;74.21;98667.88;4968785;28;20013;-76
2022/03/16 02:05:08;;;;;;;;;;;;;;;6.79;73.67;98668.13;4953029;28;20332;-75
2022/03/16 02:07:37;;;;;;;;;;;;;;;6.85;74.05;98676.25;4989707;28;19926;-76
2022/03/16 02:10:06;;;;;;;;;;;;;;;6.77;73.69;98681.09;5007318;28;19940;-75
2022/03/16 02:12:44;;;;;;;;;;;;;;;6.85;73.60;98671.66;4992009;28;19930;-76
2022/03/16 02:15:12;;;;;;;;;;;;;;;6.81;73.69;98676.78;4994250;28;20025;-75
2022/03/16 02:17:43;;;;;;;;;;;;;;;6.88;73.93;98673.03;4989485;28;19930;-76
2022/03/16 02:20:11;;;;;;;;;;;;;;;6.73;74.13;98687.31;4959397;28;19956;-76
2022/03/16 02:22:49;;;;;;;;;;;;;;;6.34;75.38;98681.50;4991099;28;19925;-76
2022/03/16 02:25:21;;;;;;;;;;;;;;;6.22;75.99;98679.03;4975186;28;19948;-76
2022/03/16 02:27:49;;;;;;;;;;;;;;;6.14;76.56;98679.56;4973860;28;19957;-76
2022/03/16 02:30:17;;;;;;;;;;;;;;;6.21;76.12;98672.84;4975601;28;19964;-76
2022/03/16 02:32:46;;;;;;;;;;;;;;;6.19;76.00;98683.09;4976458;28;19960;-76
2022/03/16 02:35:16;;;;;;;;;;;;;;;6.18;76.32;98678.78;4993834;28;19925;-76
2022/03/16 02:37:45;;;;;;;;;;;;;;;6.10;76.68;98690.06;4993790;28;20410;-76
2022/03/16 02:40:20;;;;;;;;;;;;;;;6.13;76.34;98692.25;4976504;28;19933;-76
2022/03/16 02:42:48;;;;;;;;;;;;;;;6.06;76.21;98694.34;4992649;28;19926;-75
2022/03/16 02:45:18;;;;;;;;;;;;;;;6.13;76.57;98694.94;4974875;28;19932;-75
2022/03/16 02:47:47;;;;;;;;;;;;;;;6.12;76.25;98700.56;4992638;28;19968;-76
2022/03/16 02:50:17;;;;;;;;;;;;;;;6.14;76.64;98704.66;4977049;28;20012;-76
2022/03/16 02:52:45;;;;;;;;;;;;;;;6.20;76.29;98697.41;4977082;28;19940;-76
2022/03/16 02:55:33;;;;;;;;;;;;;;;6.19;76.21;98714.66;4972224;28;19977;-76
2022/03/16 02:58:02;;;;;;;;;;;;;;;6.40;75.55;98704.78;4977754;28;20332;-76
2022/03/16 03:00:36;;;;;;;;;;;;;;;6.60;74.73;98712.91;4987334;28;19925;-76
2022/03/16 03:03:05;;;;;;;;;;;;;;;6.50;74.80;98715.59;4991146;28;19996;-75
2022/03/16 03:06:05;;;;;;;;;;;;;;;6.33;75.44;98723.88;4987651;28;19926;-76
2022/03/16 03:08:35;;;;;;;;;;;;;;;6.46;74.58;98731.50;4991865;28;19988;-76
2022/03/16 03:11:07;;;;;;;;;;;;;;;6.36;75.01;98733.34;4989403;28;20397;-76
2022/03/16 03:13:36;;;;;;;;;;;;;;;6.27;75.49;98725.75;4980076;28;19926;-77
2022/03/16 03:16:06;;;;;;;;;;;;;;;6.19;75.71;98726.25;5003332;28;20008;-76
2022/03/16 03:18:37;;;;;;;;;;;;;;;6.21;75.71;98726.81;4965084;28;20024;-76
2022/03/16 03:21:10;;;;;;;;;;;;;;;6.46;74.37;98733.41;4992200;28;19930;-76
2022/03/16 03:23:41;;;;;;;;;;;;;;;6.23;74.65;98740.03;4980161;28;20384;-76
2022/03/16 03:26:14;;;;;;;;;;;;;;;6.26;74.22;98740.31;4976195;28;19981;-76
2022/03/16 03:28:43;;;;;;;;;;;;;;;6.08;74.55;98738.09;4972327;28;19984;-76
2022/03/16 03:31:12;;;;;;;;;;;;;;;6.06;75.08;98739.41;4973604;28;19933;-76
2022/03/16 03:33:40;;;;;;;;;;;;;;;6.00;75.72;98741.25;4990538;28;19968;-76
2022/03/16 03:36:10;;;;;;;;;;;;;;;6.12;75.71;98741.84;4993132;28;20426;-76
2022/03/16 03:38:39;;;;;;;;;;;;;;;6.11;75.11;98742.13;4995324;28;19985;-76
2022/03/16 03:41:07;;;;;;;;;;;;;;;5.92;75.94;98745.28;4990903;28;19926;-75
2022/03/16 03:43:37;;;;;;;;;;;;;;;5.86;76.11;98742.75;5009814;28;20052;-76
2022/03/16 03:46:11;;;;;;;;;;;;;;;5.98;76.50;98749.63;4988410;28;19953;-75
2022/03/16 03:48:39;;;;;;;;;;;;;;;6.42;74.26;98754.69;4991216;28;19930;-75
2022/03/16 03:51:11;;;;;;;;;;;;;;;6.03;74.73;98752.34;4990926;28;20372;-76
2022/03/16 03:53:43;;;;;;;;;;;;;;;5.87;75.93;98757.88;4975092;28;20299;-75
2022/03/16 03:56:13;;;;;;;;;;;;;;;5.73;76.40;98758.31;5006518;28;20383;-76
2022/03/16 03:58:45;;;;;;;;;;;;;;;5.76;76.67;98762.41;5000860;28;19933;-76
2022/03/16 04:01:18;;;;;;;;;;;;;;;6.29;74.39;98761.41;4987627;28;19969;-76
2022/03/16 04:03:47;;;;;;;;;;;;;;;6.34;74.23;98766.00;4993116;28;20320;-76
2022/03/16 04:06:18;;;;;;;;;;;;;;;6.31;74.42;98771.91;4980072;28;19929;-76
2022/03/16 04:08:46;;;;;;;;;;;;;;;6.69;73.07;98762.63;4990169;28;19930;-76
2022/03/16 04:11:14;;;;;;;;;;;;;;;6.69;72.67;98776.13;4991602;28;19939;-76
2022/03/16 04:13:42;;;;;;;;;;;;;;;6.69;72.15;98776.13;4990886;28;20065;-76
2022/03/16 04:16:14;;;;;;;;;;;;;;;6.53;73.19;98779.84;4987785;28;20016;-76
2022/03/16 04:18:44;;;;;;;;;;;;;;;6.28;74.08;98786.75;4979042;28;19958;-76
2022/03/16 04:21:12;;;;;;;;;;;;;;;6.12;74.87;98782.31;4995918;28;19930;-76
2022/03/16 04:23:41;;;;;;;;;;;;;;;5.96;75.64;98786.00;4974395;28;20091;-76
2022/03/16 04:26:09;;;;;;;;;;;;;;;5.89;76.04;98783.50;4991260;28;19929;-76
2022/03/16 04:28:38;;;;;;;;;;;;;;;5.84;76.21;98786.16;4972833;28;20008;-76
2022/03/16 04:31:07;;;;;;;;;;;;;;;5.84;76.05;98796.13;4989079;28;19930;-76
2022/03/16 04:33:37;;;;;;;;;;;;;;;5.78;76.06;98792.59;4977732;28;19929;-76
2022/03/16 04:36:08;;;;;;;;;;;;;;;5.74;76.58;98788.78;4975321;28;19929;-76
2022/03/16 04:38:36;;;;;;;;;;;;;;;5.74;76.59;98786.09;4975126;28;20024;-77
2022/03/16 04:41:07;;;;;;;;;;;;;;;5.73;76.41;98796.06;4973663;28;19929;-77
2022/03/16 04:43:37;;;;;;;;;;;;;;;5.69;76.27;98788.75;4976739;28;19926;-77
2022/03/16 04:46:09;;;;;;;;;;;;;;;5.61;76.71;98786.53;4971653;28;19930;-76
2022/03/16 04:48:38;;;;;;;;;;;;;;;5.67;76.47;98780.09;4992887;28;19929;-77
2022/03/16 04:51:06;;;;;;;;;;;;;;;5.60;76.59;98791.13;4994986;28;20406;-77
2022/03/16 04:53:37;;;;;;;;;;;;;;;5.61;76.59;98792.75;4994782;28;19975;-77
2022/03/16 04:56:08;;;;;;;;;;;;;;;5.56;76.78;98794.56;4992490;28;19988;-77
2022/03/16 04:58:38;;;;;;;;;;;;;;;5.47;76.89;98791.53;4993689;28;19933;-76
2022/03/16 05:01:09;;;;;;;;;;;;;;;5.38;76.95;98784.97;4992664;28;19936;-77
2022/03/16 05:03:40;;;;;;;;;;;;;;;5.45;76.59;98794.50;4993402;28;19930;-77
2022/03/16 05:06:08;;;;;;;;;;;;;;;5.42;77.03;98788.78;4992662;28;20021;-76
2022/03/16 05:08:37;;;;;;;;;;;;;;;5.34;77.30;98789.28;4993097;28;19925;-76
2022/03/16 05:11:06;;;;;;;;;;;;;;;5.52;76.61;98791.56;4978107;28;20040;-76
2022/03/16 05:13:34;;;;;;;;;;;;;;;5.51;76.33;98798.03;4978737;28;19933;-77
2022/03/16 05:16:07;;;;;;;;;;;;;;;6.09;74.03;98804.44;4988486;28;20391;-76
2022/03/16 05:18:35;;;;;;;;;;;;;;;6.13;73.27;98810.16;4998114;28;19932;-77
2022/03/16 05:21:08;;;;;;;;;;;;;;;6.32;73.04;98807.81;4978797;28;19956;-77
2022/03/16 05:23:36;;;;;;;;;;;;;;;6.25;72.47;98819.66;4990884;28;19929;-77
2022/03/16 05:26:08;;;;;;;;;;;;;;;6.17;72.68;98817.44;4974761;28;19926;-76
2022/03/16 05:28:36;;;;;;;;;;;;;;;6.30;72.32;98833.19;4957425;28;19929;-78
2022/03/16 05:31:07;;;;;;;;;;;;;;;6.41;71.73;98836.75;4971792;28;19933;-76
2022/03/16 05:33:41;;;;;;;;;;;;;;;5.69;74.14;98843.47;4985495;28;19932;-76
2022/03/16 05:36:10;;;;;;;;;;;;;;;5.62;75.15;98834.78;4980537;28;19977;-75
2022/03/16 05:38:38;;;;;;;;;;;;;;;5.79;74.54;98848.94;4988282;28;19932;-76
2022/03/16 05:41:06;;;;;;;;;;;;;;;6.08;72.98;98848.69;4984982;28;20299;-76
2022/03/16 05:43:35;;;;;;;;;;;;;;;6.14;72.80;98853.03;4986032;28;19926;-76
2022/03/16 05:46:06;;;;;;;;;;;;;;;5.53;74.16;98850.59;4963191;28;19926;-75
2022/03/16 05:48:34;;;;;;;;;;;;;;;5.31;75.89;98854.44;4990708;28;19925;-77
2022/03/16 05:51:05;;;;;;;;;;;;;;;5.15;76.82;98864.22;4990499;28;19925;-76
2022/03/16 05:53:35;;;;;;;;;;;;;;;5.16;76.59;98861.28;4989226;28;19926;-77
2022/03/16 05:56:06;;;;;;;;;;;;;;;5.41;76.42;98866.13;4994483;28;19925;-75
2022/03/16 05:58:34;;;;;;;;;;;;;;;5.49;75.40;98870.25;4989758;28;19929;-74
2022/03/16 06:01:07;;;;;;;;;;;;;;;5.70;74.40;98876.63;4992468;28;19930;-76
2022/03/16 06:03:35;;;;;;;;;;;;;;;6.08;72.86;98883.75;4971509;28;19961;-73
2022/03/16 06:06:09;;;;;;;;;;;;;;;5.96;73.16;98881.22;4992223;28;19929;-74
2022/03/16 06:08:49;;;;;;;;;;;;;;;5.92;73.27;98885.50;5006590;28;19926;-77
2022/03/16 06:11:44;;;;;;;;;;;;;;;5.91;73.23;98899.22;4990502;28;20331;-82
2022/03/16 06:14:18;;;;;;;;;;;;;;;5.62;74.05;98898.69;5011524;28;19926;-79
2022/03/16 06:16:48;;;;;;;;;;;;;;;5.58;74.61;98900.25;4999447;28;20013;-77
2022/03/16 06:19:20;;;;;;;;;;;;;;;5.62;74.69;98895.97;4998649;28;19925;-76
2022/03/16 06:21:48;;;;;;;;;;;;;;;6.24;73.10;98904.38;4992620;28;20343;-78
2022/03/16 06:24:18;;;;;;;;;;;;;;;5.97;73.44;98890.94;5004176;28;20024;-78
2022/03/16 06:26:47;;;;;;;;;;;;;;;5.99;73.68;98904.19;4991712;28;19930;-77
2022/03/16 06:29:15;;;;;;;;;;;;;;;5.96;74.16;98899.28;4998568;28;19933;-75
2022/03/16 06:31:43;;;;;;;;;;;;;;;6.14;73.28;98907.00;4986762;28;20389;-76
2022/03/16 06:34:12;;;;;;;;;;;;;;;6.52;71.81;98913.22;4992672;28;20340;-76
2022/03/16 06:36:41;;;;;;;;;;;;;;;6.80;70.70;98920.94;4991419;28;20024;-77
2022/03/16 06:39:09;;;;;;;;;;;;;;;6.51;71.68;98923.19;4973671;28;19926;-77
2022/03/16 06:41:39;;;;;;;;;;;;;;;6.67;71.07;98918.72;4971947;28;20406;-77
2022/03/16 06:44:07;;;;;;;;;;;;;;;6.35;72.29;98920.66;4968894;28;19969;-77
2022/03/16 06:46:37;;;;;;;;;;;;;;;6.59;71.62;98921.06;4975261;28;19926;-77
2022/03/16 06:49:05;;;;;;;;;;;;;;;6.75;71.19;98923.59;4977812;28;19937;-77
2022/03/16 06:51:33;;;;;;;;;;;;;;;6.45;71.64;98926.94;4974790;28;20013;-77
2022/03/16 06:54:03;;;;;;;;;;;;;;;6.54;71.73;98927.25;4984449;28;19979;-77
2022/03/16 06:56:37;;;;;;;;;;;;;;;6.58;71.65;98925.66;4977506;28;19926;-76
2022/03/16 06:59:07;;;;;;;;;;;;;;;6.85;70.68;98932.84;4972819;28;19929;-77
2022/03/16 07:01:37;;;;;;;;;;;;;;;6.65;71.68;98931.63;4995876;28;19926;-77
2022/03/16 07:04:06;;;;;;;;;;;;;;;6.62;71.59;98928.66;4994923;28;20419;-77
2022/03/16 07:06:35;;;;;;;;;;;;;;;6.45;72.37;98928.81;4986880;28;20031;-76
2022/03/16 07:11:47;;;;;;;;;;;;;;;6.50;72.64;98931.56;4998348;28;19933;-76
2022/03/16 07:14:31;;;;;;;;;;;;;;;6.67;72.04;98929.50;4995728;28;19926;-76
2022/03/16 07:17:02;;;;;;;;;;;;;;;7.20;69.73;98938.44;4998551;28;19930;-78
2022/03/16 07:19:31;;;;;;;;;;;;;;;7.07;70.03;98938.91;4994923;28;19926;-77
2022/03/16 07:22:01;;;;;;;;;;;;;;;6.89;70.72;98929.34;5008502;28;19933;-77
2022/03/16 07:24:30;;;;;;;;;;;;;;;7.17;69.49;98930.03;5000021;28;19926;-76
2022/03/16 07:27:02;;;;;;;;;;;;;;;6.88;70.72;98929.63;4995576;28;19984;-77
2022/03/16 07:29:32;;;;;;;;;;;;;;;6.81;70.91;98935.25;4978376;28;19925;-78
2022/03/16 07:32:00;;;;;;;;;;;;;;;7.04;69.93;98929.44;4989284;28;20327;-77
2022/03/16 07:34:29;;;;;;;;;;;;;;;7.32;69.24;98930.91;4992204;28;19930;-77
2022/03/16 07:37:00;;;;;;;;;;;;;;;7.46;68.99;98941.22;4989986;28;19977;-76
2022/03/16 07:39:28;;;;;;;;;;;;;;;7.69;67.78;98929.94;4976720;28;19933;-78
2022/03/16 07:41:57;;;;;;;;;;;;;;;7.81;67.69;98925.06;5004775;28;20455;-78
2022/03/16 07:44:26;;;;;;;;;;;;;;;7.84;67.41;98926.44;4959645;28;19960;-78
2022/03/16 07:46:56;;;;;;;;;;;;;;;8.04;66.67;98931.03;5007181;28;19932;-78
2022/03/16 07:49:24;;;;;;;;;;;;;;;8.17;66.25;98925.09;5000832;28;20012;-78
2022/03/16 07:51:52;;;;;;;;;;;;;;;7.98;66.84;98932.94;5005849;28;19932;-78
2022/03/16 07:54:20;;;;;;;;;;;;;;;8.13;65.94;98935.66;5022345;28;19933;-78
2022/03/16 07:56:48;;;;;;;;;;;;;;;7.98;66.35;98937.53;4985918;28;19973;-78
2022/03/16 07:59:16;;;;;;;;;;;;;;;7.97;66.65;98942.13;5003331;28;20347;-79
2022/03/16 08:01:44;;;;;;;;;;;;;;;8.00;67.48;98941.63;5001769;28;20303;-78
2022/03/16 08:04:15;;;;;;;;;;;;;;;8.46;66.22;98932.69;4981701;28;20402;-78
2022/03/16 08:06:43;;;;;;;;;;;;;;;8.63;65.18;98942.19;5000360;28;20014;-78
2022/03/16 08:09:11;;;;;;;;;;;;;;;8.72;65.38;98936.19;5019084;28;19925;-78
2022/03/16 08:11:40;;;;;;;;;;;;;;;8.68;64.74;98940.53;4997282;28;19926;-78
2022/03/16 08:14:08;;;;;;;;;;;;;;;8.73;63.07;98940.50;4981782;28;19933;-77
2022/03/16 08:16:37;;;;;;;;;;;;;;;8.99;62.53;98936.66;4997718;28;19936;-78
2022/03/16 08:19:05;;;;;;;;;;;;;;;8.71;62.65;98940.81;5015714;28;19948;-79
2022/03/16 08:21:37;;;;;;;;;;;;;;;8.53;63.36;98939.47;4999071;28;19934;-78
2022/03/16 08:24:06;;;;;;;;;;;;;;;8.41;64.20;98944.34;5014602;28;20391;-78
2022/03/16 08:26:34;;;;;;;;;;;;;;;8.64;62.99;98940.28;4988703;28;19926;-79
2022/03/16 08:29:03;;;;;;;;;;;;;;;8.95;62.86;98934.78;4997169;28;19926;-78
2022/03/16 08:31:31;;;;;;;;;;;;;;;8.72;63.16;98941.59;5005835;28;19987;-78
2022/03/16 08:33:59;;;;;;;;;;;;;;;8.80;63.83;98931.03;5017126;28;19929;-79
2022/03/16 08:36:27;;;;;;;;;;;;;;;8.83;63.16;98938.59;5001894;28;19926;-78
2022/03/16 08:38:56;;;;;;;;;;;;;;;8.72;63.82;98936.19;5002498;28;19925;-78
2022/03/16 08:41:25;;;;;;;;;;;;;;;8.86;63.45;98948.91;5019654;28;20016;-79
2022/03/16 08:43:53;;;;;;;;;;;;;;;8.97;62.29;98949.69;5011802;28;20435;-78
2022/03/16 08:46:21;;;;;;;;;;;;;;;9.02;60.75;98941.53;5014057;28;19925;-78
2022/03/16 08:48:50;;;;;;;;;;;;;;;8.99;62.01;98938.56;5010912;28;19936;-78
2022/03/16 08:51:18;;;;;;;;;;;;;;;8.81;62.29;98938.06;4997431;28;19925;-78
2022/03/16 08:53:49;;;;;;;;;;;;;;;9.00;62.15;98946.44;5001545;28;20303;-78
2022/03/16 08:56:19;;;;;;;;;;;;;;;9.21;61.25;98952.59;5016431;28;20317;-78
2022/03/16 08:58:47;;;;;;;;;;;;;;;9.05;61.27;98953.72;5016737;28;20011;-78
2022/03/16 09:01:14;;;;;;;;;;;;;;;9.15;61.18;98954.50;5016306;28;20013;-78
2022/03/16 09:03:43;;;;;;;;;;;;;;;9.42;61.70;98956.84;5013960;28;19925;-78
2022/03/16 09:06:13;;;;;;;;;;;;;;;9.10;61.28;98949.09;5014680;28;20375;-78
2022/03/16 09:08:42;;;;;;;;;;;;;;;9.02;61.66;98946.16;5019642;28;19932;-78
2022/03/16 09:11:12;;;;;;;;;;;;;;;9.01;61.23;98958.09;5012185;28;19937;-78
2022/03/16 09:13:42;;;;;;;;;;;;;;;8.99;61.77;98943.97;5016968;28;19926;-78
2022/03/16 09:16:10;;;;;;;;;;;;;;;9.21;60.40;98949.88;5016849;28;19937;-78
2022/03/16 09:18:38;;;;;;;;;;;;;;;9.09;62.26;98954.81;5013745;28;19933;-78
2022/03/16 09:21:07;;;;;;;;;;;;;;;9.01;62.26;98950.75;5009985;28;19936;-79
2022/03/16 09:23:35;;;;;;;;;;;;;;;9.36;62.48;98943.56;4983322;28;19925;-78
2022/03/16 09:26:03;;;;;;;;;;;;;;;9.19;61.28;98938.50;5008309;28;19933;-78
2022/03/16 09:28:33;;;;;;;;;;;;;;;9.35;60.95;98950.91;5015776;28;19979;-78
2022/03/16 09:31:03;;;;;;;;;;;;;;;9.33;60.89;98944.97;5013663;28;19921;-76
2022/03/16 09:33:34;;;;;;;;;;;;;;;9.61;60.79;98948.88;5011388;28;19964;-78
2022/03/16 09:36:08;;;;;;;;;;;;;;;9.80;61.11;98951.78;5010797;28;20280;-77
2022/03/16 09:38:36;;;;;;;;;;;;;;;9.97;60.22;98952.22;5011209;28;19972;-78
2022/03/16 09:52:52;;;;;;;;;;;;;;;10.41;58.57;98939.69;4877630;29;20429;-74
2022/03/16 10:52:15;;;;;;;;;;;;;;;11.59;54.70;98915.53;4913936;29;19927;-77
2022/03/16 10:54:49;;;;;;;;;;;;;;;11.77;54.87;98913.91;4911881;29;20309;-76
2022/03/16 11:27:16;;;;;;;;;;;;;;;11.88;53.46;98865.59;4950190;28;19926;-77
2022/03/16 11:29:53;;;;;;;;;;;;;;;12.14;52.40;98874.16;4937585;28;19931;-77
2022/03/16 11:32:21;;;;;;;;;;;;;;;12.18;51.68;98867.00;4960073;28;20035;-76
2022/03/16 11:34:58;;;;;;;;;;;;;;;12.48;51.72;98865.69;4969871;28;19926;-80
2022/03/16 11:37:32;;;;;;;;;;;;;;;12.95;49.52;98859.06;4963940;28;20361;-89
2022/03/16 11:40:05;;;;;;;;;;;;;;;12.73;50.18;98856.19;4951748;28;19927;-80
2022/03/16 11:42:38;;;;;;;;;;;;;;;12.32;49.66;98865.94;4983947;28;19944;-77
2022/03/16 11:45:27;;;;;;;;;;;;;;;12.02;48.59;98845.47;4984569;28;19926;-75
2022/03/16 11:47:56;;;;;;;;;;;;;;;12.51;49.47;98849.50;4970210;28;19992;-78
2022/03/16 11:50:28;;;;;;;;;;;;;;;12.08;49.22;98846.19;4995980;28;19926;-77
2022/03/16 11:53:04;;;;;;;;;;;;;;;12.37;49.66;98842.44;4973992;28;20470;-78
2022/03/16 11:55:45;;;;;;;;;;;;;;;12.50;49.83;98847.91;4975174;28;19926;-79
2022/03/16 11:58:17;;;;;;;;;;;;;;;12.72;49.94;98849.13;4984617;28;19934;-75
2022/03/16 12:00:48;;;;;;;;;;;;;;;12.44;48.61;98845.56;4976692;28;19926;-77
2022/03/16 12:03:24;;;;;;;;;;;;;;;11.90;49.42;98844.34;4970926;28;20697;-73
2022/03/16 12:05:56;;;;;;;;;;;;;;;12.00;50.50;98853.16;4973788;28;20215;-77
2022/03/16 12:08:24;;;;;;;;;;;;;;;12.11;49.41;98852.97;4974854;28;19926;-77
2022/03/16 12:12:50;;;;;;;;;;;;;;;12.53;50.76;98852.75;4980088;28;19926;-77
2022/03/16 12:13:44;;;;;;;;;;;;;;;12.84;50.01;98847.53;4958804;28;19933;-77
2022/03/16 12:16:13;;;;;;;;;;;;;;;13.06;47.07;98835.09;4955301;28;19926;-77
2022/03/16 12:18:46;;;;;;;;;;;;;;;13.23;46.90;98832.56;4975435;28;19961;-78
2022/03/16 12:21:14;;;;;;;;;;;;;;;13.49;45.89;98832.81;4954238;28;19929;-79
2022/03/16 12:23:44;;;;;;;;;;;;;;;13.48;46.54;98825.75;4986663;28;19965;-78
2022/03/16 12:26:12;;;;;;;;;;;;;;;13.60;46.48;98826.00;4985806;28;19930;-78
2022/03/16 12:31:24;;;;;;;;;;;;;;;13.42;47.44;98817.97;4980710;28;19945;-77
2022/03/16 12:33:55;;;;;;;;;;;;;;;13.11;47.65;98816.72;4977732;28;19940;-77
2022/03/16 12:36:23;;;;;;;;;;;;;;;13.06;47.93;98810.56;4981085;28;20332;-77
2022/03/16 12:38:54;;;;;;;;;;;;;;;13.04;48.10;98813.56;4982886;28;19932;-77
2022/03/16 12:44:11;;;;;;;;;;;;;;;13.03;46.15;98820.13;4984902;28;19961;-77
2022/03/16 12:46:42;;;;;;;;;;;;;;;13.27;47.79;98810.94;4952665;28;20265;-77
2022/03/16 12:49:12;;;;;;;;;;;;;;;13.66;46.45;98812.25;4981055;28;19930;-77
2022/03/16 12:51:43;;;;;;;;;;;;;;;13.36;45.31;98814.53;4983073;28;19926;-77
2022/03/16 12:54:11;;;;;;;;;;;;;;;13.35;46.43;98810.22;4984120;28;19930;-77
2022/03/16 12:56:40;;;;;;;;;;;;;;;13.15;46.94;98816.06;4984123;28;19925;-78
2022/03/16 12:59:09;;;;;;;;;;;;;;;13.01;48.02;98813.38;4974595;28;19929;-76
2022/03/16 13:01:37;;;;;;;;;;;;;;;13.40;46.55;98804.63;4988502;28;19926;-79
2022/03/16 13:04:08;;;;;;;;;;;;;;;13.39;46.50;98800.28;4992459;28;19934;-79
2022/03/16 13:06:37;;;;;;;;;;;;;;;13.60;46.69;98804.16;4959010;28;19926;-79
2022/03/16 13:09:07;;;;;;;;;;;;;;;13.62;46.13;98806.59;4992686;28;19959;-79
2022/03/16 13:11:35;;;;;;;;;;;;;;;13.34;46.06;98801.22;4983018;28;19972;-78
2022/03/16 13:14:06;;;;;;;;;;;;;;;13.62;46.92;98798.38;4959253;28;19933;-76
2022/03/16 13:16:38;;;;;;;;;;;;;;;13.91;45.22;98792.50;4982070;28;19926;-80
2022/03/16 13:19:08;;;;;;;;;;;;;;;14.00;47.04;98790.63;4990076;28;19930;-79
2022/03/16 13:21:36;;;;;;;;;;;;;;;14.00;45.06;98789.81;4977763;28;20005;-81
2022/03/16 13:24:07;;;;;;;;;;;;;;;13.88;44.91;98784.94;4982290;28;20021;-80
2022/03/16 13:26:36;;;;;;;;;;;;;;;12.92;45.99;98787.94;4987034;28;19988;-77
2022/03/16 13:29:05;;;;;;;;;;;;;;;13.14;47.26;98784.47;4973639;28;19926;-74
2022/03/16 13:31:33;;;;;;;;;;;;;;;13.30;45.04;98778.38;4956922;28;19933;-76
2022/03/16 13:34:02;;;;;;;;;;;;;;;13.40;46.18;98777.34;4956528;28;19941;-76
2022/03/16 13:36:31;;;;;;;;;;;;;;;12.81;46.39;98782.69;4978650;28;19930;-74
2022/03/16 13:38:59;;;;;;;;;;;;;;;12.99;46.56;98775.47;4954799;28;19981;-74
2022/03/16 13:41:29;;;;;;;;;;;;;;;13.28;47.61;98777.88;4984480;28;20376;-77
2022/03/16 13:44:03;;;;;;;;;;;;;;;13.45;45.86;98785.41;4978702;28;19925;-76
2022/03/16 13:46:37;;;;;;;;;;;;;;;13.48;46.15;98782.06;4968179;28;19926;-76
2022/03/16 13:49:14;;;;;;;;;;;;;;;13.28;45.22;98777.09;4981972;28;20017;-75
2022/03/16 13:52:00;;;;;;;;;;;;;;;13.51;46.40;98777.91;4949939;28;19925;-75
2022/03/16 13:54:29;;;;;;;;;;;;;;;13.46;45.52;98778.84;4989529;28;19926;-75
2022/03/16 13:57:05;;;;;;;;;;;;;;;13.72;44.41;98773.56;4991415;28;19980;-77
2022/03/16 13:59:34;;;;;;;;;;;;;;;13.84;45.66;98775.72;4973199;28;19933;-76
2022/03/16 14:02:22;;;;;;;;;;;;;;;13.99;43.75;98780.81;4969390;28;19966;-76
2022/03/16 14:04:55;;;;;;;;;;;;;;;13.76;44.21;98773.75;4996871;28;19972;-77
2022/03/16 14:07:28;;;;;;;;;;;;;;;13.76;44.40;98762.84;4993445;28;19925;-80
2022/03/16 14:09:56;;;;;;;;;;;;;;;13.74;44.58;98768.63;4983214;28;19941;-78
2022/03/16 14:12:33;;;;;;;;;;;;;;;13.87;44.58;98753.28;4979447;28;20316;-77
2022/03/16 14:15:06;;;;;;;;;;;;;;;13.87;45.11;98765.00;4976149;28;19936;-82
2022/03/16 14:17:44;;;;;;;;;;;;;;;13.81;44.74;98760.78;4979938;28;19926;-79
2022/03/16 14:20:13;;;;;;;;;;;;;;;13.97;44.09;98763.13;4987621;28;20297;-79
2022/03/16 14:22:43;;;;;;;;;;;;;;;13.89;44.17;98761.94;4987167;28;20400;-76
2022/03/16 14:25:18;;;;;;;;;;;;;;;13.68;43.18;98758.13;4989132;28;19937;-75
2022/03/16 14:27:48;;;;;;;;;;;;;;;13.75;45.48;98756.56;4972425;28;19926;-77
2022/03/16 14:30:19;;;;;;;;;;;;;;;13.52;46.09;98763.94;4958517;28;20025;-76
2022/03/16 14:32:49;;;;;;;;;;;;;;;13.52;45.39;98769.41;4979533;28;19964;-80
2022/03/16 14:35:17;;;;;;;;;;;;;;;13.54;46.38;98766.38;4985413;28;19926;-79
2022/03/16 14:37:45;;;;;;;;;;;;;;;13.69;46.32;98767.91;4990709;28;19925;-81
2022/03/16 14:40:15;;;;;;;;;;;;;;;13.54;45.54;98750.81;4977301;28;19926;-81
2022/03/16 14:42:45;;;;;;;;;;;;;;;13.39;46.30;98748.44;4983279;28;19926;-79
2022/03/16 14:45:14;;;;;;;;;;;;;;;13.52;46.35;98750.28;4973838;28;20384;-81
2022/03/16 14:47:42;;;;;;;;;;;;;;;13.47;45.14;98750.41;4993521;28;19933;-79
2022/03/16 14:50:10;;;;;;;;;;;;;;;13.58;44.25;98742.78;4995995;28;19930;-79
2022/03/16 14:52:38;;;;;;;;;;;;;;;13.80;45.43;98744.72;4993273;28;20024;-80
2022/03/16 14:55:07;;;;;;;;;;;;;;;13.59;44.91;98753.41;4980129;28;19930;-81
2022/03/16 14:57:35;;;;;;;;;;;;;;;13.75;44.93;98745.66;4994529;28;19926;-79
2022/03/16 15:00:04;;;;;;;;;;;;;;;13.52;45.10;98742.09;5009302;28;19929;-82
2022/03/16 15:02:35;;;;;;;;;;;;;;;13.44;44.91;98734.66;4979426;28;19995;-79